createdAt,value
2018-04-22T00:01:01.353Z,10.00
2018-04-22T00:03:29.575Z,10.10
2018-04-22T00:05:57.814Z,10.10
2018-04-22T00:08:26.802Z,10.00
2018-04-22T00:10:55.813Z,10.10
2018-04-22T00:13:24.046Z,10.10
2018-04-22T00:15:52.303Z,10.10
2018-04-22T00:18:20.528Z,10.10
2018-04-22T00:20:48.770Z,10.10
2018-04-22T00:23:16.987Z,10.00
2018-04-22T00:25:45.231Z,10.00
2018-04-22T00:28:14.231Z,9.80
2018-04-22T00:30:43.234Z,9.80
2018-04-22T00:33:11.839Z,9.80
2018-04-22T00:35:40.820Z,9.80
2018-04-22T00:38:09.044Z,9.80
2018-04-22T00:40:37.272Z,9.80
2018-04-22T00:43:05.493Z,9.80
2018-04-22T00:45:33.762Z,9.80
2018-04-22T00:48:01.945Z,9.80
2018-04-22T00:50:30.170Z,9.80
2018-04-22T00:52:58.394Z,9.70
2018-04-22T00:55:26.878Z,9.60
2018-04-22T00:57:55.107Z,9.60
2018-04-22T01:00:23.328Z,9.50
2018-04-22T01:02:51.563Z,9.50
2018-04-22T01:05:19.782Z,9.50
2018-04-22T01:07:48.785Z,9.40
2018-04-22T01:10:17.007Z,9.40
2018-04-22T01:12:45.239Z,9.40
2018-04-22T01:15:13.459Z,9.30
2018-04-22T01:17:42.469Z,9.10
2018-04-22T01:20:10.691Z,9.00
2018-04-22T01:22:38.925Z,9.10
2018-04-22T01:25:07.150Z,9.00
2018-04-22T01:27:35.375Z,9.00
2018-04-22T01:30:03.591Z,9.00
2018-04-22T01:32:31.821Z,8.90
2018-04-22T01:35:00.048Z,9.00
2018-04-22T01:37:28.279Z,9.00
2018-04-22T01:39:57.263Z,8.90
2018-04-22T01:42:26.264Z,8.90
2018-04-22T01:44:55.252Z,9.00
2018-04-22T01:47:24.250Z,8.90
2018-04-22T01:49:53.238Z,8.90
2018-04-22T01:52:22.247Z,9.00
2018-04-22T01:54:51.227Z,8.90
2018-04-22T01:57:20.223Z,8.80
2018-04-22T01:59:48.451Z,8.80
2018-04-22T02:02:16.682Z,8.90
2018-04-22T02:04:44.911Z,8.80
2018-04-22T02:07:13.129Z,8.90
2018-04-22T02:09:41.353Z,8.90
2018-04-22T02:12:09.579Z,8.90
2018-04-22T02:14:37.807Z,8.90
2018-04-22T02:17:06.035Z,8.90
2018-04-22T02:19:34.260Z,8.90
2018-04-22T02:22:02.487Z,8.90
2018-04-22T02:24:30.711Z,9.00
2018-04-22T02:26:58.935Z,8.90
2018-04-22T02:29:27.160Z,8.90
2018-04-22T02:31:56.160Z,8.80
2018-04-22T02:34:25.150Z,8.80
2018-04-22T02:36:54.150Z,8.60
2018-04-22T02:39:22.367Z,8.60
2018-04-22T02:41:50.596Z,8.50
2018-04-22T02:44:18.818Z,8.50
2018-04-22T02:46:47.839Z,8.60
2018-04-22T02:49:16.064Z,8.50
2018-04-22T02:51:44.283Z,8.60
2018-04-22T02:54:12.523Z,8.70
2018-04-22T02:56:40.732Z,8.70
2018-04-22T02:59:08.967Z,8.70
2018-04-22T03:01:37.189Z,8.70
2018-04-22T03:04:06.191Z,8.70
2018-04-22T03:06:35.180Z,8.80
2018-04-22T03:09:04.178Z,8.80
2018-04-22T03:11:33.165Z,8.80
2018-04-22T03:14:02.167Z,8.80
2018-04-22T03:16:30.389Z,8.80
2018-04-22T03:18:58.613Z,8.80
2018-04-22T03:21:26.845Z,8.80
2018-04-22T03:23:55.075Z,8.80
2018-04-22T03:26:23.301Z,8.90
2018-04-22T03:28:51.540Z,8.90
2018-04-22T03:31:19.755Z,8.90
2018-04-22T03:33:48.759Z,9.00
2018-04-22T03:36:17.747Z,9.00
2018-04-22T03:38:46.751Z,9.00
2018-04-22T03:41:14.970Z,9.00
2018-04-22T03:43:43.475Z,9.00
2018-04-22T03:46:11.695Z,8.90
2018-04-22T03:48:39.932Z,8.90
2018-04-22T03:51:08.148Z,8.90
2018-04-22T03:53:36.383Z,8.80
2018-04-22T03:56:05.399Z,8.70
2018-04-22T03:58:33.640Z,8.70
2018-04-22T04:01:01.867Z,8.70
2018-04-22T04:03:30.095Z,8.50
2018-04-22T04:05:59.483Z,8.10
2018-04-22T04:08:27.704Z,8.10
2018-04-22T04:10:55.930Z,8.10
2018-04-22T04:13:24.172Z,8.10
2018-04-22T04:15:52.407Z,8.10
2018-04-22T04:21:44.658Z,8.20
2018-04-22T04:27:44.985Z,8.30
2018-04-22T04:30:13.983Z,8.20
2018-04-22T04:32:42.972Z,8.20
2018-04-22T04:35:11.966Z,8.20
2018-04-22T04:37:40.959Z,8.20
2018-04-22T04:40:09.954Z,8.30
2018-04-22T04:42:38.184Z,8.20
2018-04-22T04:45:07.187Z,8.30
2018-04-22T04:47:35.412Z,8.30
2018-04-22T04:50:03.651Z,8.40
2018-04-22T04:52:31.868Z,8.50
2018-04-22T04:55:00.113Z,8.50
2018-04-22T04:57:29.088Z,8.70
2018-04-22T04:59:58.090Z,8.70
2018-04-22T05:02:27.075Z,8.80
2018-04-22T05:04:56.079Z,8.90
2018-04-22T05:07:25.062Z,8.90
2018-04-22T05:09:54.059Z,9.00
2018-04-22T05:12:23.042Z,9.10
2018-04-22T05:14:52.043Z,9.30
2018-04-22T05:17:21.037Z,9.40
2018-04-22T05:19:50.112Z,9.50
2018-04-22T05:22:18.327Z,9.50
2018-04-22T05:24:46.555Z,9.70
2018-04-22T05:27:14.784Z,9.80
2018-04-22T05:29:43.015Z,9.90
2018-04-22T05:32:12.009Z,10.10
2018-04-22T05:34:41.157Z,10.20
2018-04-22T05:39:42.627Z,10.30
2018-04-22T05:42:10.864Z,10.30
2018-04-22T05:44:39.105Z,10.40
2018-04-22T05:47:08.094Z,10.50
2018-04-22T05:49:37.106Z,10.60
2018-04-22T05:52:05.345Z,10.50
2018-04-22T05:54:33.576Z,10.50
2018-04-22T05:57:01.806Z,10.50
2018-04-22T05:59:30.803Z,10.50
2018-04-22T06:01:59.030Z,10.50
2018-04-22T06:04:27.260Z,10.50
2018-04-22T06:06:56.267Z,10.80
2018-04-22T06:09:24.506Z,10.80
2018-04-22T06:11:52.755Z,11.00
2018-04-22T06:14:20.977Z,11.10
2018-04-22T06:16:49.356Z,11.30
2018-04-22T06:19:17.555Z,11.40
2018-04-22T06:21:45.799Z,11.60
2018-04-22T06:24:14.790Z,12.00
2018-04-22T06:26:43.035Z,12.00
2018-04-22T06:29:11.259Z,12.20
2018-04-22T06:31:39.500Z,12.40
2018-04-22T06:34:08.488Z,12.90
2018-04-22T06:36:37.493Z,13.20
2018-04-22T06:39:06.491Z,13.40
2018-04-22T06:41:34.735Z,13.40
2018-04-22T06:44:02.962Z,13.60
2018-04-22T06:46:31.284Z,13.80
2018-04-22T06:48:59.486Z,14.10
2018-04-22T06:51:27.728Z,14.20
2018-04-22T06:53:55.950Z,14.40
2018-04-22T06:56:24.183Z,14.50
2018-04-22T06:58:53.174Z,14.80
2018-04-22T07:01:22.215Z,15.00
2018-04-22T07:03:51.174Z,15.10
2018-04-22T07:06:20.189Z,15.30
2018-04-22T07:08:48.413Z,15.40
2018-04-22T07:11:16.647Z,15.50
2018-04-22T07:13:44.878Z,15.60
2018-04-22T07:16:13.884Z,16.10
2018-04-22T07:18:42.110Z,16.00
2018-04-22T07:21:10.354Z,16.30
2018-04-22T07:23:38.986Z,16.40
2018-04-22T07:26:07.200Z,16.40
2018-04-22T07:28:35.418Z,16.50
2018-04-22T07:31:03.684Z,16.60
2018-04-22T07:33:31.909Z,16.80
2018-04-22T07:36:00.149Z,17.10
2018-04-22T07:38:28.378Z,17.30
2018-04-22T07:40:56.622Z,17.30
2018-04-22T07:43:25.619Z,17.50
2018-04-22T07:45:53.846Z,17.60
2018-04-22T07:48:22.095Z,17.80
2018-04-22T07:50:50.319Z,17.80
2018-04-22T07:53:19.327Z,18.10
2018-04-22T07:55:48.310Z,18.20
2018-04-22T07:58:17.378Z,18.10
2018-04-22T08:00:45.603Z,18.00
2018-04-22T08:03:13.849Z,18.30
2018-04-22T08:05:42.848Z,18.30
2018-04-22T08:08:11.849Z,18.30
2018-04-22T08:10:40.076Z,18.30
2018-04-22T08:13:08.325Z,18.60
2018-04-22T08:15:36.551Z,18.80
2018-04-22T08:18:05.553Z,18.60
2018-04-22T08:20:34.558Z,18.60
2018-04-22T08:23:02.800Z,18.60
2018-04-22T08:25:31.039Z,18.70
2018-04-22T08:27:59.290Z,18.90
2018-04-22T08:30:27.524Z,18.70
2018-04-22T08:32:55.758Z,18.50
2018-04-22T08:35:23.978Z,18.80
2018-04-22T08:37:52.987Z,19.30
2018-04-22T08:40:21.211Z,19.20
2018-04-22T08:42:49.447Z,19.30
2018-04-22T08:45:17.683Z,19.70
2018-04-22T08:47:45.934Z,19.90
2018-04-22T08:50:14.170Z,19.80
2018-04-22T08:52:42.410Z,19.60
2018-04-22T08:55:11.401Z,20.00
2018-04-22T08:57:40.459Z,20.00
2018-04-22T09:00:08.690Z,19.90
2018-04-22T09:02:36.928Z,19.80
2018-04-22T09:05:05.159Z,19.90
2018-04-22T09:07:33.400Z,20.20
2018-04-22T09:10:02.388Z,20.10
2018-04-22T09:12:31.408Z,20.10
2018-04-22T09:14:59.643Z,20.10
2018-04-22T09:17:28.853Z,20.00
2018-04-22T09:19:57.843Z,19.70
2018-04-22T09:22:26.951Z,19.70
2018-04-22T09:24:55.530Z,19.70
2018-04-22T09:27:24.541Z,20.20
2018-04-22T09:29:52.767Z,20.10
2018-04-22T09:32:21.793Z,20.50
2018-04-22T09:34:50.028Z,20.50
2018-04-22T09:37:19.063Z,21.30
2018-04-22T09:39:47.345Z,21.30
2018-04-22T09:42:15.598Z,21.60
2018-04-22T09:44:43.844Z,21.60
2018-04-22T09:47:12.085Z,21.20
2018-04-22T09:49:40.335Z,21.00
2018-04-22T09:52:08.710Z,21.10
2018-04-22T09:54:37.084Z,21.40
2018-04-22T09:57:05.350Z,21.50
2018-04-22T09:59:34.343Z,21.50
2018-04-22T10:02:02.597Z,21.50
2018-04-22T10:04:37.443Z,21.70
2018-04-22T10:07:05.721Z,21.70
2018-04-22T10:09:34.002Z,21.50
2018-04-22T10:12:02.246Z,21.30
2018-04-22T10:14:31.260Z,21.80
2018-04-22T10:16:59.512Z,21.80
2018-04-22T10:19:28.535Z,22.20
2018-04-22T10:21:56.800Z,22.20
2018-04-22T10:24:25.793Z,22.70
2018-04-22T10:26:54.039Z,22.70
2018-04-22T10:29:23.051Z,22.60
2018-04-22T10:31:51.293Z,22.50
2018-04-22T10:34:19.543Z,22.50
2018-04-22T10:36:47.776Z,22.60
2018-04-22T10:39:16.047Z,22.90
2018-04-22T10:41:44.283Z,23.20
2018-04-22T10:44:12.531Z,23.00
2018-04-22T10:46:41.579Z,23.40
2018-04-22T10:49:09.787Z,23.40
2018-04-22T10:51:38.025Z,23.50
2018-04-22T10:54:07.049Z,23.40
2018-04-22T10:56:35.285Z,23.40
2018-04-22T10:59:04.345Z,23.60
2018-04-22T11:01:32.540Z,23.50
2018-04-22T11:04:00.826Z,23.40
2018-04-22T11:06:29.836Z,23.90
2018-04-22T11:08:58.839Z,24.20
2018-04-22T11:11:27.077Z,24.20
2018-04-22T11:13:56.097Z,24.00
2018-04-22T11:16:24.326Z,24.00
2018-04-22T11:18:52.592Z,24.20
2018-04-22T11:21:20.835Z,24.20
2018-04-22T11:23:49.079Z,24.10
2018-04-22T11:26:18.079Z,24.40
2018-04-22T11:28:46.339Z,24.40
2018-04-22T11:31:15.340Z,25.20
2018-04-22T11:33:44.351Z,25.50
2018-04-22T11:36:12.587Z,25.50
2018-04-22T11:38:41.603Z,25.40
2018-04-22T11:41:09.842Z,25.40
2018-04-22T11:43:38.083Z,25.10
2018-04-22T11:46:06.331Z,25.40
2018-04-22T11:48:34.563Z,25.60
2018-04-22T11:51:02.812Z,25.50
2018-04-22T11:53:31.084Z,25.60
2018-04-22T11:55:59.295Z,25.70
2018-04-22T11:58:28.308Z,25.70
2018-04-22T12:00:56.567Z,25.60
2018-04-22T12:03:25.567Z,25.50
2018-04-22T12:05:54.582Z,25.40
2018-04-22T12:08:22.827Z,25.40
2018-04-22T12:10:51.852Z,26.00
2018-04-22T12:13:20.096Z,26.00
2018-04-22T12:15:49.112Z,26.00
2018-04-22T12:18:17.346Z,26.00
2018-04-22T12:20:45.626Z,25.70
2018-04-22T12:23:14.631Z,26.20
2018-04-22T12:25:43.640Z,26.10
2018-04-22T12:28:12.153Z,26.10
2018-04-22T12:30:40.511Z,26.20
2018-04-22T12:33:08.775Z,26.20
2018-04-22T12:35:37.055Z,26.40
2018-04-22T12:38:05.285Z,26.30
2018-04-22T12:40:33.526Z,26.30
2018-04-22T12:43:02.526Z,26.40
2018-04-22T12:45:30.778Z,26.40
2018-04-22T12:47:59.783Z,26.40
2018-04-22T12:50:28.799Z,26.40
2018-04-22T12:52:57.052Z,26.40
2018-04-22T12:55:26.067Z,26.50
2018-04-22T12:57:54.309Z,26.50
2018-04-22T13:00:23.371Z,26.90
2018-04-22T13:02:51.591Z,26.90
2018-04-22T13:05:19.843Z,27.00
2018-04-22T13:07:48.841Z,27.20
2018-04-22T13:10:17.935Z,27.00
2018-04-22T13:12:46.971Z,27.10
2018-04-22T13:15:15.218Z,27.00
2018-04-22T13:17:43.460Z,26.90
2018-04-22T13:20:11.707Z,26.90
2018-04-22T13:22:39.946Z,27.30
2018-04-22T13:25:08.202Z,27.30
2018-04-22T13:27:37.210Z,27.20
2018-04-22T13:30:05.463Z,27.20
2018-04-22T13:32:34.471Z,27.10
2018-04-22T13:35:02.726Z,27.10
2018-04-22T13:37:31.731Z,27.00
2018-04-22T13:39:59.982Z,27.00
2018-04-22T13:42:28.214Z,27.10
2018-04-22T13:44:56.459Z,27.10
2018-04-22T13:47:24.723Z,27.10
2018-04-22T13:49:53.724Z,27.00
2018-04-22T13:52:21.979Z,27.00
2018-04-22T13:54:50.970Z,27.00
2018-04-22T13:57:19.986Z,27.00
2018-04-22T13:59:48.229Z,27.00
2018-04-22T14:02:16.474Z,27.00
2018-04-22T14:04:44.700Z,27.20
2018-04-22T14:07:12.955Z,27.10
2018-04-22T14:09:41.178Z,27.00
2018-04-22T14:12:09.422Z,27.10
2018-04-22T14:14:37.652Z,27.10
2018-04-22T14:17:05.895Z,27.00
2018-04-22T14:19:34.144Z,26.90
2018-04-22T14:22:02.384Z,26.90
2018-04-22T14:24:30.607Z,27.00
2018-04-22T14:26:58.863Z,26.90
2018-04-22T14:29:29.652Z,26.80
2018-04-22T14:31:57.900Z,26.80
2018-04-22T14:34:26.131Z,27.00
2018-04-22T14:36:55.135Z,27.30
2018-04-22T14:39:23.366Z,27.20
2018-04-22T14:41:51.611Z,27.30
2018-04-22T14:44:31.660Z,27.30
2018-04-22T14:46:59.905Z,27.40
2018-04-22T14:49:28.139Z,27.50
2018-04-22T14:51:56.379Z,27.50
2018-04-22T14:54:24.635Z,27.50
2018-04-22T14:56:52.890Z,27.60
2018-04-22T14:59:21.107Z,27.40
2018-04-22T15:01:49.350Z,27.40
2018-04-22T15:04:17.579Z,27.40
2018-04-22T15:06:45.899Z,27.50
2018-04-22T15:09:15.274Z,27.60
2018-04-22T15:11:43.495Z,27.60
2018-04-22T15:14:13.255Z,27.40
2018-04-22T15:16:41.495Z,27.10
2018-04-22T15:19:09.730Z,26.70
2018-04-22T15:21:37.984Z,26.40
2018-04-22T15:24:06.219Z,26.10
2018-04-22T15:26:34.482Z,25.90
2018-04-22T15:29:02.711Z,25.70
2018-04-22T15:31:31.729Z,25.70
2018-04-22T15:33:59.965Z,25.60
2018-04-22T15:36:28.222Z,25.70
2018-04-22T15:38:56.454Z,25.60
2018-04-22T15:41:25.115Z,25.60
2018-04-22T15:43:53.474Z,25.50
2018-04-22T15:46:21.703Z,25.60
2018-04-22T15:48:49.947Z,25.70
2018-04-22T15:51:18.175Z,25.70
2018-04-22T15:53:46.420Z,25.70
2018-04-22T15:56:14.643Z,25.70
2018-04-22T15:58:42.886Z,25.60
2018-04-22T16:01:11.140Z,25.50
2018-04-22T16:03:39.464Z,25.40
2018-04-22T16:06:07.698Z,25.30
2018-04-22T16:08:35.992Z,25.30
2018-04-22T16:11:04.484Z,25.20
2018-04-22T16:13:32.870Z,25.10
2018-04-22T16:16:01.127Z,25.00
2018-04-22T16:18:29.437Z,25.00
2018-04-22T16:20:57.878Z,25.00
2018-04-22T16:23:26.143Z,25.00
2018-04-22T16:25:54.434Z,25.00
2018-04-22T16:28:22.682Z,25.00
2018-04-22T16:30:50.911Z,24.90
2018-04-22T16:33:19.918Z,25.00
2018-04-22T16:35:48.155Z,24.90
2018-04-22T16:38:16.395Z,25.00
2018-04-22T16:40:44.632Z,25.00
2018-04-22T16:43:13.651Z,25.00
2018-04-22T16:45:41.878Z,25.00
2018-04-22T16:48:10.115Z,24.90
2018-04-22T16:50:38.693Z,24.80
2018-04-22T16:53:06.897Z,24.70
2018-04-22T16:55:35.114Z,24.60
2018-04-22T16:58:03.365Z,24.40
2018-04-22T17:00:32.362Z,24.10
2018-04-22T17:03:01.363Z,23.90
2018-04-22T17:05:29.591Z,23.90
2018-04-22T17:07:57.839Z,23.70
2018-04-22T17:10:26.263Z,23.70
2018-04-22T17:12:56.078Z,23.60
2018-04-22T17:15:25.601Z,23.40
2018-04-22T17:17:54.707Z,22.70
2018-04-22T17:20:23.006Z,22.70
2018-04-22T17:22:51.361Z,22.60
2018-04-22T17:25:21.566Z,22.30
2018-04-22T17:27:50.714Z,22.00
2018-04-22T17:30:18.983Z,22.00
2018-04-22T17:32:47.221Z,21.80
2018-04-22T17:35:15.458Z,21.70
2018-04-22T17:37:43.778Z,21.60
2018-04-22T17:40:12.624Z,21.40
2018-04-22T17:42:40.973Z,21.30
2018-04-22T17:45:12.433Z,21.20
2018-04-22T17:47:43.047Z,21.10
2018-04-22T17:50:11.945Z,21.00
2018-04-22T17:52:40.309Z,20.90
2018-04-22T17:55:08.818Z,20.90
2018-04-22T17:57:37.123Z,20.80
2018-04-22T18:00:06.331Z,20.60
2018-04-22T18:02:34.711Z,20.60
2018-04-22T18:05:02.946Z,20.50
2018-04-22T18:07:31.177Z,20.40
2018-04-22T18:09:59.467Z,20.30
2018-04-22T18:12:27.726Z,20.10
2018-04-22T18:14:55.962Z,19.90
2018-04-22T18:17:24.186Z,19.80
2018-04-22T18:19:52.424Z,19.70
2018-04-22T18:22:20.743Z,19.70
2018-04-22T18:24:48.975Z,19.60
2018-04-22T18:27:17.212Z,19.50
2018-04-22T18:29:45.455Z,19.50
2018-04-22T18:32:13.683Z,19.60
2018-04-22T18:34:41.924Z,19.60
2018-04-22T18:37:10.155Z,19.60
2018-04-22T18:39:38.430Z,19.50
2018-04-22T18:42:06.666Z,19.40
2018-04-22T18:44:35.712Z,19.20
2018-04-22T18:47:03.902Z,19.20
2018-04-22T18:49:32.738Z,19.20
2018-04-22T18:52:01.082Z,19.00
2018-04-22T18:54:29.490Z,18.90
2018-04-22T18:56:58.458Z,18.80
2018-04-22T18:59:27.494Z,18.90
2018-04-22T19:01:55.805Z,18.80
2018-04-22T19:04:24.044Z,18.80
2018-04-22T19:06:52.576Z,18.80
2018-04-22T19:09:20.798Z,18.80
2018-04-22T19:11:49.031Z,18.80
2018-04-22T19:14:18.033Z,18.90
2018-04-22T19:16:47.026Z,19.00
2018-04-22T19:19:16.031Z,18.90
2018-04-22T19:21:44.265Z,18.90
2018-04-22T19:24:12.503Z,18.80
2018-04-22T19:26:40.733Z,18.70
2018-04-22T19:29:09.751Z,18.70
2018-04-22T19:31:37.983Z,18.70
2018-04-22T19:34:06.210Z,18.70
2018-04-22T19:36:34.459Z,18.70
2018-04-22T19:39:02.695Z,18.70
2018-04-22T19:41:30.962Z,18.70
2018-04-22T19:43:59.195Z,18.70
2018-04-22T19:46:27.430Z,18.60
2018-04-22T19:48:56.436Z,18.60
2018-04-22T19:51:25.723Z,18.70
2018-04-22T19:53:53.945Z,18.60
2018-04-22T19:56:22.193Z,18.70
2018-04-22T19:58:50.416Z,18.60
2018-04-22T20:01:18.667Z,18.60
2018-04-22T20:03:46.900Z,18.50
2018-04-22T20:06:15.911Z,18.50
2018-04-22T20:08:44.161Z,18.50
2018-04-22T20:11:13.163Z,18.60
2018-04-22T20:13:41.391Z,18.60
2018-04-22T20:16:09.628Z,18.60
2018-04-22T20:18:38.370Z,18.50
2018-04-22T20:21:06.830Z,18.30
2018-04-22T20:23:35.043Z,18.20
2018-04-22T20:26:03.276Z,18.00
2018-04-22T20:28:31.504Z,17.90
2018-04-22T20:31:00.819Z,17.60
2018-04-22T20:33:29.051Z,17.50
2018-04-22T20:35:57.287Z,17.40
2018-04-22T20:38:25.519Z,17.20
2018-04-22T20:40:54.650Z,17.10
2018-04-22T20:43:22.874Z,17.10
2018-04-22T20:45:51.879Z,16.90
2018-04-22T20:48:20.128Z,16.90
2018-04-22T20:50:48.369Z,16.80
2018-04-22T20:53:16.595Z,16.80
2018-04-22T20:55:45.606Z,16.70
2018-04-22T20:58:13.839Z,16.70
2018-04-22T21:00:42.076Z,16.60
2018-04-22T21:03:10.311Z,16.60
2018-04-22T21:05:38.552Z,16.10
2018-04-22T21:08:06.775Z,16.00
2018-04-22T21:10:35.011Z,15.90
2018-04-22T21:13:03.236Z,15.90
2018-04-22T21:15:31.483Z,15.90
2018-04-22T21:17:59.734Z,15.70
2018-04-22T21:20:27.976Z,15.70
2018-04-22T21:22:56.227Z,15.70
2018-04-22T21:25:24.462Z,15.50
2018-04-22T21:27:53.510Z,15.50
2018-04-22T21:30:21.740Z,15.50
2018-04-22T21:32:50.741Z,15.50
2018-04-22T21:35:19.289Z,15.50
2018-04-22T21:37:47.518Z,15.50
2018-04-22T21:40:15.734Z,15.50
2018-04-22T21:42:43.970Z,15.40
2018-04-22T21:45:12.191Z,15.10
2018-04-22T21:47:41.205Z,15.00
2018-04-22T21:50:10.199Z,15.00
2018-04-22T21:52:38.440Z,15.00
2018-04-22T21:55:06.663Z,15.00
2018-04-22T21:57:34.907Z,14.90
2018-04-22T22:00:03.904Z,14.80
2018-04-22T22:02:32.911Z,14.70
2018-04-22T22:05:01.149Z,14.70
2018-04-22T22:07:29.379Z,14.60
2018-04-22T22:09:57.620Z,14.60
2018-04-22T22:12:25.867Z,14.60
2018-04-22T22:14:55.264Z,14.50
2018-04-22T22:17:23.481Z,14.50
2018-04-22T22:19:52.024Z,14.50
2018-04-22T22:22:20.263Z,14.50
2018-04-22T22:24:48.495Z,14.40
2018-04-22T22:27:16.745Z,14.40
2018-04-22T22:29:44.971Z,14.40
2018-04-22T22:32:13.207Z,14.40
2018-04-22T22:34:42.207Z,14.40
2018-04-22T22:37:10.451Z,14.40
2018-04-22T22:39:38.684Z,14.40
2018-04-22T22:42:06.918Z,14.30
2018-04-22T22:44:35.914Z,14.30
2018-04-22T22:47:04.923Z,14.30
2018-04-22T22:49:33.153Z,14.30
2018-04-22T22:52:01.399Z,14.20
2018-04-22T22:54:29.630Z,14.10
2018-04-22T22:56:57.872Z,14.10
2018-04-22T22:59:26.099Z,14.10
2018-04-22T23:01:54.343Z,14.00
2018-04-22T23:04:23.347Z,14.00
2018-04-22T23:06:51.584Z,14.00
2018-04-22T23:09:19.806Z,14.10
2018-04-22T23:11:48.047Z,14.00
2018-04-22T23:14:17.039Z,13.90
2018-04-22T23:16:45.280Z,13.80
2018-04-22T23:19:13.514Z,13.80
2018-04-22T23:21:41.752Z,13.80
2018-04-22T23:24:09.996Z,13.70
2018-04-22T23:26:38.233Z,13.60
2018-04-22T23:29:06.478Z,13.60
2018-04-22T23:31:35.490Z,13.50
2018-04-22T23:34:03.755Z,13.50
2018-04-22T23:36:32.749Z,13.40
2018-04-22T23:39:01.771Z,13.50
2018-04-22T23:41:30.011Z,13.50
2018-04-22T23:43:59.018Z,13.60
2018-04-22T23:46:27.260Z,13.50
2018-04-22T23:48:55.516Z,13.60
2018-04-22T23:51:23.756Z,13.60
2018-04-22T23:53:52.004Z,13.60
2018-04-22T23:56:21.007Z,13.60
2018-04-22T23:58:49.263Z,13.60
